METAR Data
IDs: Format: Raw Decoded Include TAF

Data at: 2032 UTC 17 Nov 2019

KTKX 172015Z AUTO 24007KT 10SM CLR 11/03 A2996 RMK AO2
KTKX 171955Z AUTO 23007KT 10SM CLR 11/02 A2995 RMK AO2
KTKX 171935Z AUTO 20005KT 10SM CLR 11/02 A2996 RMK AO2
KTKX 171915Z AUTO 22004KT 10SM CLR 11/02 A2998 RMK AO2
KTKX 171855Z AUTO 24004G10KT 10SM CLR 11/02 A3000 RMK AO2
KTKX 171835Z AUTO 25006KT 10SM CLR 11/02 A3001 RMK AO2
KTKX 171815Z AUTO 26005KT 10SM CLR 11/02 A3002 RMK AO2
KTKX 171755Z AUTO 00000KT 10SM CLR 10/02 A3003 RMK AO2
KTKX 171735Z AUTO 22005KT 10SM CLR 10/03 A3004 RMK AO2
KTKX 171715Z AUTO 23007KT 10SM CLR 10/02 A3007 RMK AO2
KTKX 171655Z AUTO 24004KT 10SM CLR 10/02 A3007 RMK AO2
KTKX 171635Z AUTO 22004KT 10SM CLR 09/02 A3007 RMK AO2
KTKX 171615Z AUTO 00000KT 10SM CLR 08/03 A3008 RMK AO2
KTKX 171555Z AUTO 00000KT 10SM CLR 07/03 A3010 RMK AO2
KTKX 171535Z AUTO 00000KT 10SM CLR 06/03 A3010 RMK AO2
KTKX 171515Z AUTO 00000KT 10SM CLR 05/03 A3009 RMK AO2
KTKX 171455Z AUTO 08004KT 10SM CLR 05/03 A3009 RMK AO2
KTKX 171435Z AUTO 00000KT 10SM CLR 03/03 A3009 RMK AO2
KTKX 171415Z AUTO 00000KT 10SM CLR 02/02 A3009 RMK AO2
KTKX 171355Z AUTO 01004KT 9SM CLR 02/01 A3010 RMK AO2
KTKX 171335Z AUTO 01003KT 10SM CLR 01/01 A3010 RMK AO2
KTKX 171315Z AUTO 00000KT 3SM BR CLR M00/M00 A3010 RMK AO2
KTKX 171255Z AUTO 00000KT 3SM BR CLR M01/M01 A3010 RMK AO2
KTKX 171235Z AUTO 00000KT 8SM CLR M01/M01 A3010 RMK AO2
KTKX 171215Z AUTO 00000KT 10SM CLR M01/M01 A3010 RMK AO2
KTKX 171155Z AUTO 36005KT 10SM CLR M01/M01 A3010 RMK AO2
KTKX 171135Z AUTO 02004KT 10SM CLR M00/M00 A3010 RMK AO2
KTKX 171115Z AUTO 01004KT 10SM CLR M00/M00 A3010 RMK AO2
KTKX 171055Z AUTO 00000KT 10SM CLR M00/M01 A3009 RMK AO2
KTKX 171035Z AUTO 02003KT 10SM CLR M00/M01 A3010 RMK AO2
KTKX 171015Z AUTO 01005KT 10SM CLR 00/M00 A3011 RMK AO2
KTKX 170955Z AUTO 01005KT 10SM CLR 01/00 A3011 RMK AO2
KTKX 170935Z AUTO 04003KT 10SM CLR 00/M00 A3011 RMK AO2
KTKX 170915Z AUTO 05004KT 10SM CLR 00/M00 RMK AO2
KTKX 170855Z AUTO 02005KT 10SM CLR 01/00 A3012 RMK AO2
KTKX 170835Z AUTO 01004KT 10SM CLR 01/00 A3013 RMK AO2
KTKX 170815Z AUTO 01004KT 10SM CLR 01/00 A3013 RMK AO2
KTKX 170755Z AUTO 01005KT 10SM CLR 02/01 A3014 RMK AO2
KTKX 170735Z AUTO 02006KT 10SM CLR 01/01 A3014 RMK AO2
KTKX 170715Z AUTO 36004KT 10SM CLR M00/M01 A3015 RMK AO2
KTKX 170655Z AUTO 35003KT 10SM CLR 01/00 A3015 RMK AO2
KTKX 170635Z AUTO 33004KT 10SM CLR 03/01 A3015 RMK AO2
KTKX 170615Z AUTO 01005KT 10SM CLR 03/01 A3014 RMK AO2
KTKX 170555Z AUTO 04004KT 10SM CLR 04/01 A3014 RMK AO2
KTKX 170535Z AUTO 06004KT 10SM CLR 04/01 A3013 RMK AO2
KTKX 170515Z AUTO 04005KT 10SM CLR 04/01 A3014 RMK AO2
KTKX 170455Z AUTO 05007KT 10SM CLR 05/02 A3014 RMK AO2
KTKX 170435Z AUTO 05006KT 10SM CLR 05/02 A3014 RMK AO2
KTKX 170415Z AUTO 05004KT 10SM CLR 05/02 A3015 RMK AO2
KTKX 170355Z AUTO 05005KT 10SM CLR 04/02 A3015 RMK AO2
KTKX 170335Z AUTO 05005KT 10SM CLR 04/02 A3015 RMK AO2
KTKX 170315Z AUTO 05005KT 10SM CLR 05/02 A3015 RMK AO2
KTKX 170255Z AUTO 04004KT 10SM CLR 04/02 A3016 RMK AO2
KTKX 170235Z AUTO 04004KT 10SM CLR 05/03 A3016 RMK AO2
KTKX 170215Z AUTO 04005KT 10SM CLR 05/03 A3016 RMK AO2
KTKX 170155Z AUTO 04005KT 10SM CLR 05/03 A3016 RMK AO2
KTKX 170135Z AUTO 03005KT 10SM CLR 05/02 A3016 RMK AO2
KTKX 170115Z AUTO 03006KT 10SM CLR 05/03 A3017 RMK AO2
KTKX 170055Z AUTO 04004KT 10SM CLR 06/03 A3017 RMK AO2
KTKX 170035Z AUTO 04004KT 10SM CLR 06/03 A3017 RMK AO2
KTKX 170015Z AUTO 03005KT 10SM CLR 06/03 A3017 RMK AO2
KTKX 162355Z AUTO 03004KT 10SM CLR 06/02 A3017 RMK AO2
KTKX 162335Z AUTO 03005KT 10SM CLR 07/03 A3017 RMK AO2
KTKX 162315Z AUTO 03005KT 9SM CLR 07/03 A3017 RMK AO2
KTKX 162255Z AUTO 03005KT 10SM CLR 08/02 A3018 RMK AO2
KTKX 162235Z AUTO 03006KT 10SM CLR 09/03 A3018 RMK AO2
KTKX 162215Z AUTO 03007KT 10SM CLR 10/03 A3018 RMK AO2
KTKX 162155Z AUTO 03009KT 10SM CLR 10/03 A3018 RMK AO2
KTKX 162135Z AUTO 02006KT 10SM CLR 10/02 A3019 RMK AO2
KTKX 162115Z AUTO 02009KT 10SM CLR 11/02 A3019 RMK AO2
KTKX 162055Z AUTO 04007KT 10SM CLR 11/02 A3019 RMK AO2
KTKX 162035Z AUTO 04007KT 10SM CLR 11/01 A3020 RMK AO2
KTKX 162015Z AUTO VRB06G12KT 10SM CLR 11/01 A3020 RMK AO2
KTKX 161955Z AUTO 04007KT 10SM CLR 11/01 A3021 RMK AO2
KTKX 161935Z AUTO 36010KT 10SM CLR 11/01 A3022 RMK AO2
KTKX 161915Z AUTO 35007KT 10SM CLR 11/00 A3023 RMK AO2
KTKX 161855Z AUTO VRB05G12KT 10SM CLR 10/00 A3024 RMK AO2
KTKX 161835Z AUTO 02008KT 360V060 10SM CLR 10/00 A3024 RMK AO2
KTKX 161815Z AUTO 04008KT 10SM CLR 10/01 A3025 RMK AO2
KTKX 161755Z AUTO 01007KT 10SM CLR 10/01 A3027 RMK AO2
KTKX 161735Z AUTO 02007G14KT 10SM CLR 09/00 A3028 RMK AO2
KTKX 161715Z AUTO 06006KT 10SM CLR 09/M00 A3029 RMK AO2
KTKX 161655Z AUTO 05007KT 10SM CLR 08/M00 A3030 RMK AO2
KTKX 161635Z AUTO 03008KT 10SM CLR 08/00 A3031 RMK AO2
KTKX 161615Z AUTO 02007KT 10SM CLR 07/00 A3031 RMK AO2
KTKX 161555Z AUTO 03008KT 10SM CLR 06/00 A3032 RMK AO2
KTKX 161535Z AUTO 02006KT 10SM CLR 05/M00 A3032 RMK AO2
KTKX 161515Z AUTO 04006KT 10SM CLR 05/M00 A3032 RMK AO2
KTKX 161455Z AUTO 04008KT 10SM CLR 04/M01 A3032 RMK AO2
KTKX 161435Z AUTO 03007KT 10SM CLR 03/M01 A3033 RMK AO2
KTKX 161415Z AUTO 03008KT 10SM CLR 03/M01 A3032 RMK AO2
KTKX 161355Z AUTO 02008KT 10SM CLR 02/M01 A3033 RMK AO2
KTKX 161335Z AUTO 02008KT 10SM CLR 02/M02 A3033 RMK AO2
KTKX 161315Z AUTO 03008KT 10SM CLR 01/M02 A3032 RMK AO2
KTKX 161255Z AUTO 02007KT 10SM CLR M00/M02 A3032 RMK AO2
KTKX 161235Z AUTO 01008KT 10SM CLR M00/M02 A3032 RMK AO2
KTKX 161215Z AUTO 02008KT 10SM CLR M00/M03 A3031 RMK AO2
KTKX 161155Z AUTO 02007KT 10SM CLR M01/M03 A3031 RMK AO2
KTKX 161135Z AUTO 36006KT 10SM CLR M00/M02 A3031 RMK AO2
KTKX 161115Z AUTO 01007KT 10SM CLR M01/M02 A3031 RMK AO2
KTKX 161055Z AUTO 01007KT 10SM CLR M01/M03 A3031 RMK AO2
KTKX 161035Z AUTO 35005KT 10SM CLR M01/M03 A3031 RMK AO2
KTKX 161015Z AUTO 36005KT 10SM CLR M01/M03 A3031 RMK AO2
KTKX 160955Z AUTO 01006KT 10SM CLR M00/M03 A3030 RMK AO2
KTKX 160935Z AUTO 01007KT 10SM CLR M00/M03 A3030 RMK AO2
KTKX 160915Z AUTO 02007KT 10SM CLR 00/M02 A3031 RMK AO2
KTKX 160855Z AUTO 02007KT 10SM CLR 01/M02 A3030 RMK AO2
KTKX 160835Z AUTO 02007KT 10SM CLR 00/M02 A3030 RMK AO2